sensor_id;sensor_type;location;lat;lon;timestamp;temperature;humidity
19214;DHT22;9741;51.020;5.304;2023-02-02T00:01:22;9.30;60.80
19214;DHT22;9741;51.020;5.304;2023-02-02T00:03:52;9.30;60.40
19214;DHT22;9741;51.020;5.304;2023-02-02T00:06:22;9.30;60.50
19214;DHT22;9741;51.020;5.304;2023-02-02T00:08:49;9.30;60.50
19214;DHT22;9741;51.020;5.304;2023-02-02T00:11:18;9.30;60.50
19214;DHT22;9741;51.020;5.304;2023-02-02T00:13:45;9.30;60.50
19214;DHT22;9741;51.020;5.304;2023-02-02T00:16:39;9.30;60.40
19214;DHT22;9741;51.020;5.304;2023-02-02T00:19:09;9.30;60.40
19214;DHT22;9741;51.020;5.304;2023-02-02T00:21:37;9.30;60.50
19214;DHT22;9741;51.020;5.304;2023-02-02T00:24:05;9.30;60.50
19214;DHT22;9741;51.020;5.304;2023-02-02T00:26:33;9.30;60.50
19214;DHT22;9741;51.020;5.304;2023-02-02T00:29:02;9.30;60.60
19214;DHT22;9741;51.020;5.304;2023-02-02T00:31:30;9.30;60.60
19214;DHT22;9741;51.020;5.304;2023-02-02T00:33:59;9.30;60.60
19214;DHT22;9741;51.020;5.304;2023-02-02T00:36:27;9.40;60.60
19214;DHT22;9741;51.020;5.304;2023-02-02T00:38:54;9.30;60.60
19214;DHT22;9741;51.020;5.304;2023-02-02T00:41:21;9.40;60.60
19214;DHT22;9741;51.020;5.304;2023-02-02T00:43:48;9.40;60.60
19214;DHT22;9741;51.020;5.304;2023-02-02T00:46:38;9.40;60.70
19214;DHT22;9741;51.020;5.304;2023-02-02T00:49:07;9.40;60.70
19214;DHT22;9741;51.020;5.304;2023-02-02T00:51:34;9.40;60.70
19214;DHT22;9741;51.020;5.304;2023-02-02T00:54:01;9.40;60.70
19214;DHT22;9741;51.020;5.304;2023-02-02T00:56:29;9.40;60.70
19214;DHT22;9741;51.020;5.304;2023-02-02T00:58:57;9.40;60.70
19214;DHT22;9741;51.020;5.304;2023-02-02T01:01:24;9.40;60.70
19214;DHT22;9741;51.020;5.304;2023-02-02T01:03:52;9.40;60.60
19214;DHT22;9741;51.020;5.304;2023-02-02T01:06:20;9.50;60.70
19214;DHT22;9741;51.020;5.304;2023-02-02T01:08:47;9.50;60.70
19214;DHT22;9741;51.020;5.304;2023-02-02T01:11:15;9.50;61.20
19214;DHT22;9741;51.020;5.304;2023-02-02T01:13:43;9.50;60.60
19214;DHT22;9741;51.020;5.304;2023-02-02T01:16:11;9.50;60.70
19214;DHT22;9741;51.020;5.304;2023-02-02T01:18:39;9.50;60.60
19214;DHT22;9741;51.020;5.304;2023-02-02T01:21:09;9.50;60.60
19214;DHT22;9741;51.020;5.304;2023-02-02T01:23:39;9.50;60.60
19214;DHT22;9741;51.020;5.304;2023-02-02T01:26:08;9.50;60.60
19214;DHT22;9741;51.020;5.304;2023-02-02T01:28:36;9.50;60.60
19214;DHT22;9741;51.020;5.304;2023-02-02T01:31:06;9.50;60.60
19214;DHT22;9741;51.020;5.304;2023-02-02T01:33:34;9.50;60.60
19214;DHT22;9741;51.020;5.304;2023-02-02T01:36:05;9.50;60.60
19214;DHT22;9741;51.020;5.304;2023-02-02T01:38:32;9.50;60.60
19214;DHT22;9741;51.020;5.304;2023-02-02T01:41:02;9.50;60.60
19214;DHT22;9741;51.020;5.304;2023-02-02T01:43:53;9.50;60.60
19214;DHT22;9741;51.020;5.304;2023-02-02T01:46:23;9.50;60.60
19214;DHT22;9741;51.020;5.304;2023-02-02T01:48:55;9.50;60.60
19214;DHT22;9741;51.020;5.304;2023-02-02T01:51:26;9.50;60.60
19214;DHT22;9741;51.020;5.304;2023-02-02T01:53:54;9.50;60.60
19214;DHT22;9741;51.020;5.304;2023-02-02T01:56:27;9.50;61.10
19214;DHT22;9741;51.020;5.304;2023-02-02T01:58:57;9.50;60.60
19214;DHT22;9741;51.020;5.304;2023-02-02T02:01:25;9.50;60.60
19214;DHT22;9741;51.020;5.304;2023-02-02T02:03:53;9.50;60.60
19214;DHT22;9741;51.020;5.304;2023-02-02T02:06:22;9.50;60.60
19214;DHT22;9741;51.020;5.304;2023-02-02T02:08:53;9.50;60.60
19214;DHT22;9741;51.020;5.304;2023-02-02T02:11:24;9.50;60.60
19214;DHT22;9741;51.020;5.304;2023-02-02T02:13:54;9.50;60.60
19214;DHT22;9741;51.020;5.304;2023-02-02T02:16:51;9.50;60.60
19214;DHT22;9741;51.020;5.304;2023-02-02T02:19:48;9.40;60.60
19214;DHT22;9741;51.020;5.304;2023-02-02T02:22:49;9.50;60.70
19214;DHT22;9741;51.020;5.304;2023-02-02T02:25:53;9.40;60.60
19214;DHT22;9741;51.020;5.304;2023-02-02T02:29:00;9.40;60.80
19214;DHT22;9741;51.020;5.304;2023-02-02T02:31:58;9.40;60.70
19214;DHT22;9741;51.020;5.304;2023-02-02T02:34:36;9.40;60.70
19214;DHT22;9741;51.020;5.304;2023-02-02T02:37:08;9.40;60.70
19214;DHT22;9741;51.020;5.304;2023-02-02T02:39:38;9.30;60.60
19214;DHT22;9741;51.020;5.304;2023-02-02T02:42:13;9.40;60.80
19214;DHT22;9741;51.020;5.304;2023-02-02T02:44:44;9.40;60.80
19214;DHT22;9741;51.020;5.304;2023-02-02T02:47:15;9.30;60.70
19214;DHT22;9741;51.020;5.304;2023-02-02T02:49:43;9.40;60.80
19214;DHT22;9741;51.020;5.304;2023-02-02T02:52:11;9.30;60.70
19214;DHT22;9741;51.020;5.304;2023-02-02T02:54:41;9.30;60.80
19214;DHT22;9741;51.020;5.304;2023-02-02T02:57:25;9.30;60.80
19214;DHT22;9741;51.020;5.304;2023-02-02T02:59:59;9.40;60.80
19214;DHT22;9741;51.020;5.304;2023-02-02T03:02:35;9.40;60.90
19214;DHT22;9741;51.020;5.304;2023-02-02T03:05:16;9.40;60.90
19214;DHT22;9741;51.020;5.304;2023-02-02T03:07:50;9.30;60.80
19214;DHT22;9741;51.020;5.304;2023-02-02T03:10:23;9.40;61.00
19214;DHT22;9741;51.020;5.304;2023-02-02T03:12:53;9.40;61.00
19214;DHT22;9741;51.020;5.304;2023-02-02T03:15:21;9.40;61.00
19214;DHT22;9741;51.020;5.304;2023-02-02T03:17:51;9.40;61.00
19214;DHT22;9741;51.020;5.304;2023-02-02T03:20:20;9.40;61.00
19214;DHT22;9741;51.020;5.304;2023-02-02T03:22:48;9.40;61.00
19214;DHT22;9741;51.020;5.304;2023-02-02T03:25:15;9.40;61.00
19214;DHT22;9741;51.020;5.304;2023-02-02T03:27:43;9.40;61.00
19214;DHT22;9741;51.020;5.304;2023-02-02T03:30:12;9.40;61.00
19214;DHT22;9741;51.020;5.304;2023-02-02T03:32:40;9.40;61.00
19214;DHT22;9741;51.020;5.304;2023-02-02T03:35:09;9.40;61.00
19214;DHT22;9741;51.020;5.304;2023-02-02T03:37:37;9.40;61.00
19214;DHT22;9741;51.020;5.304;2023-02-02T03:40:05;9.40;61.00
19214;DHT22;9741;51.020;5.304;2023-02-02T03:42:32;9.40;61.00
19214;DHT22;9741;51.020;5.304;2023-02-02T03:45:00;9.40;61.00
19214;DHT22;9741;51.020;5.304;2023-02-02T03:47:28;9.40;61.00
19214;DHT22;9741;51.020;5.304;2023-02-02T03:49:56;9.40;61.00
19214;DHT22;9741;51.020;5.304;2023-02-02T03:52:24;9.40;61.10
19214;DHT22;9741;51.020;5.304;2023-02-02T03:54:52;9.40;61.10
19214;DHT22;9741;51.020;5.304;2023-02-02T03:57:20;9.40;61.10
19214;DHT22;9741;51.020;5.304;2023-02-02T03:59:47;9.40;61.10
19214;DHT22;9741;51.020;5.304;2023-02-02T04:02:15;9.40;61.10
19214;DHT22;9741;51.020;5.304;2023-02-02T04:04:42;9.40;61.20
19214;DHT22;9741;51.020;5.304;2023-02-02T04:07:09;9.40;61.20
19214;DHT22;9741;51.020;5.304;2023-02-02T04:09:38;9.40;61.20
19214;DHT22;9741;51.020;5.304;2023-02-02T04:12:05;9.40;61.20
19214;DHT22;9741;51.020;5.304;2023-02-02T04:14:33;9.40;61.30
19214;DHT22;9741;51.020;5.304;2023-02-02T04:17:01;9.40;61.30
19214;DHT22;9741;51.020;5.304;2023-02-02T04:19:28;9.40;61.30
19214;DHT22;9741;51.020;5.304;2023-02-02T04:21:55;9.30;61.20
19214;DHT22;9741;51.020;5.304;2023-02-02T04:24:22;9.40;61.30
19214;DHT22;9741;51.020;5.304;2023-02-02T04:26:50;9.40;61.30
19214;DHT22;9741;51.020;5.304;2023-02-02T04:29:17;9.40;61.30
19214;DHT22;9741;51.020;5.304;2023-02-02T04:31:45;9.30;61.20
19214;DHT22;9741;51.020;5.304;2023-02-02T04:34:13;9.40;61.30
19214;DHT22;9741;51.020;5.304;2023-02-02T04:36:43;9.30;61.30
19214;DHT22;9741;51.020;5.304;2023-02-02T04:39:11;9.30;61.20
19214;DHT22;9741;51.020;5.304;2023-02-02T04:41:39;9.40;61.40
19214;DHT22;9741;51.020;5.304;2023-02-02T04:44:12;9.40;61.40
19214;DHT22;9741;51.020;5.304;2023-02-02T04:46:40;9.40;61.30
19214;DHT22;9741;51.020;5.304;2023-02-02T04:49:08;9.40;61.30
19214;DHT22;9741;51.020;5.304;2023-02-02T04:51:36;9.40;61.30
19214;DHT22;9741;51.020;5.304;2023-02-02T04:54:04;9.40;61.30
19214;DHT22;9741;51.020;5.304;2023-02-02T04:56:32;9.40;61.20
19214;DHT22;9741;51.020;5.304;2023-02-02T04:58:59;9.40;61.20
19214;DHT22;9741;51.020;5.304;2023-02-02T05:01:28;9.40;61.20
19214;DHT22;9741;51.020;5.304;2023-02-02T05:03:56;9.50;61.30
19214;DHT22;9741;51.020;5.304;2023-02-02T05:06:23;9.40;61.20
19214;DHT22;9741;51.020;5.304;2023-02-02T05:08:51;9.40;61.20
19214;DHT22;9741;51.020;5.304;2023-02-02T05:11:21;9.40;61.20
19214;DHT22;9741;51.020;5.304;2023-02-02T05:13:50;9.50;61.30
19214;DHT22;9741;51.020;5.304;2023-02-02T05:16:19;9.50;61.30
19214;DHT22;9741;51.020;5.304;2023-02-02T05:18:50;9.50;61.30
19214;DHT22;9741;51.020;5.304;2023-02-02T05:21:18;9.40;61.70
19214;DHT22;9741;51.020;5.304;2023-02-02T05:23:46;9.40;61.20
19214;DHT22;9741;51.020;5.304;2023-02-02T05:26:15;9.40;61.20
19214;DHT22;9741;51.020;5.304;2023-02-02T05:28:44;9.40;61.20
19214;DHT22;9741;51.020;5.304;2023-02-02T05:31:12;9.40;61.20
19214;DHT22;9741;51.020;5.304;2023-02-02T05:33:40;9.40;61.20
19214;DHT22;9741;51.020;5.304;2023-02-02T05:36:09;9.40;61.30
19214;DHT22;9741;51.020;5.304;2023-02-02T05:38:37;9.40;61.30
19214;DHT22;9741;51.020;5.304;2023-02-02T05:41:04;9.40;61.30
19214;DHT22;9741;51.020;5.304;2023-02-02T05:43:32;9.40;61.30
19214;DHT22;9741;51.020;5.304;2023-02-02T05:45:59;9.40;61.30
19214;DHT22;9741;51.020;5.304;2023-02-02T05:48:27;9.40;61.30
19214;DHT22;9741;51.020;5.304;2023-02-02T05:50:59;9.40;61.30
19214;DHT22;9741;51.020;5.304;2023-02-02T05:53:29;9.40;61.30
19214;DHT22;9741;51.020;5.304;2023-02-02T05:55:57;9.40;61.30
19214;DHT22;9741;51.020;5.304;2023-02-02T05:58:25;9.40;61.30
19214;DHT22;9741;51.020;5.304;2023-02-02T06:00:52;9.40;61.30
19214;DHT22;9741;51.020;5.304;2023-02-02T06:03:20;9.40;61.30
19214;DHT22;9741;51.020;5.304;2023-02-02T06:05:47;9.40;61.30
19214;DHT22;9741;51.020;5.304;2023-02-02T06:08:15;9.40;61.30
19214;DHT22;9741;51.020;5.304;2023-02-02T06:10:44;9.40;61.20
19214;DHT22;9741;51.020;5.304;2023-02-02T06:13:12;9.40;61.20
19214;DHT22;9741;51.020;5.304;2023-02-02T06:15:40;9.50;61.30
19214;DHT22;9741;51.020;5.304;2023-02-02T06:18:08;9.50;61.30
19214;DHT22;9741;51.020;5.304;2023-02-02T06:20:35;9.50;61.30
19214;DHT22;9741;51.020;5.304;2023-02-02T06:23:03;9.50;61.30
19214;DHT22;9741;51.020;5.304;2023-02-02T06:25:31;9.50;61.30
19214;DHT22;9741;51.020;5.304;2023-02-02T06:28:00;9.50;61.30
19214;DHT22;9741;51.020;5.304;2023-02-02T06:30:28;9.50;61.30
19214;DHT22;9741;51.020;5.304;2023-02-02T06:32:58;9.50;61.20
19214;DHT22;9741;51.020;5.304;2023-02-02T06:35:25;9.50;61.20
19214;DHT22;9741;51.020;5.304;2023-02-02T06:37:52;9.50;61.30
19214;DHT22;9741;51.020;5.304;2023-02-02T06:40:19;9.60;61.30
19214;DHT22;9741;51.020;5.304;2023-02-02T06:42:46;9.60;61.30
19214;DHT22;9741;51.020;5.304;2023-02-02T06:45:17;9.60;61.20
19214;DHT22;9741;51.020;5.304;2023-02-02T06:47:44;9.60;61.20
19214;DHT22;9741;51.020;5.304;2023-02-02T06:50:11;9.60;61.20
19214;DHT22;9741;51.020;5.304;2023-02-02T06:52:39;9.60;61.20
19214;DHT22;9741;51.020;5.304;2023-02-02T06:55:13;9.60;61.20
19214;DHT22;9741;51.020;5.304;2023-02-02T06:57:40;9.60;61.20
19214;DHT22;9741;51.020;5.304;2023-02-02T07:00:08;9.60;61.20
19214;DHT22;9741;51.020;5.304;2023-02-02T07:02:38;9.60;61.20
19214;DHT22;9741;51.020;5.304;2023-02-02T07:05:06;9.60;61.20
19214;DHT22;9741;51.020;5.304;2023-02-02T07:07:33;9.60;61.20
19214;DHT22;9741;51.020;5.304;2023-02-02T07:10:01;9.60;61.10
19214;DHT22;9741;51.020;5.304;2023-02-02T07:12:28;9.60;61.10
19214;DHT22;9741;51.020;5.304;2023-02-02T07:14:56;9.60;61.20
19214;DHT22;9741;51.020;5.304;2023-02-02T07:17:25;9.60;61.20
19214;DHT22;9741;51.020;5.304;2023-02-02T07:19:53;9.60;61.20
19214;DHT22;9741;51.020;5.304;2023-02-02T07:22:20;9.60;61.20
19214;DHT22;9741;51.020;5.304;2023-02-02T07:24:47;9.60;61.20
19214;DHT22;9741;51.020;5.304;2023-02-02T07:27:14;9.50;61.10
19214;DHT22;9741;51.020;5.304;2023-02-02T07:29:41;9.60;61.20
19214;DHT22;9741;51.020;5.304;2023-02-02T07:32:08;9.60;61.20
19214;DHT22;9741;51.020;5.304;2023-02-02T07:34:37;9.60;61.20
19214;DHT22;9741;51.020;5.304;2023-02-02T07:37:06;9.60;61.20
19214;DHT22;9741;51.020;5.304;2023-02-02T07:39:33;9.60;61.10
19214;DHT22;9741;51.020;5.304;2023-02-02T07:42:00;9.60;61.20
19214;DHT22;9741;51.020;5.304;2023-02-02T07:44:28;9.60;61.10
19214;DHT22;9741;51.020;5.304;2023-02-02T07:46:55;9.60;61.20
19214;DHT22;9741;51.020;5.304;2023-02-02T07:49:23;9.60;61.20
19214;DHT22;9741;51.020;5.304;2023-02-02T07:51:51;9.60;61.20
19214;DHT22;9741;51.020;5.304;2023-02-02T07:54:21;9.60;61.70
19214;DHT22;9741;51.020;5.304;2023-02-02T07:56:48;9.60;61.20
19214;DHT22;9741;51.020;5.304;2023-02-02T07:59:15;9.60;61.20
19214;DHT22;9741;51.020;5.304;2023-02-02T08:01:43;9.60;61.20
19214;DHT22;9741;51.020;5.304;2023-02-02T08:04:11;9.60;61.20
19214;DHT22;9741;51.020;5.304;2023-02-02T08:06:40;9.60;61.20
19214;DHT22;9741;51.020;5.304;2023-02-02T08:09:08;9.60;61.20
19214;DHT22;9741;51.020;5.304;2023-02-02T08:11:37;9.60;61.20
19214;DHT22;9741;51.020;5.304;2023-02-02T08:14:04;9.60;61.30
19214;DHT22;9741;51.020;5.304;2023-02-02T08:16:33;9.60;61.30
19214;DHT22;9741;51.020;5.304;2023-02-02T08:19:00;9.60;61.40
19214;DHT22;9741;51.020;5.304;2023-02-02T08:21:27;9.60;61.40
19214;DHT22;9741;51.020;5.304;2023-02-02T08:23:56;9.60;61.40
19214;DHT22;9741;51.020;5.304;2023-02-02T08:26:25;9.60;61.50
19214;DHT22;9741;51.020;5.304;2023-02-02T08:28:55;9.60;61.50
19214;DHT22;9741;51.020;5.304;2023-02-02T08:31:25;9.60;61.60
19214;DHT22;9741;51.020;5.304;2023-02-02T08:33:55;9.60;61.60
19214;DHT22;9741;51.020;5.304;2023-02-02T08:36:27;9.70;61.70
19214;DHT22;9741;51.020;5.304;2023-02-02T08:38:59;9.70;61.70
19214;DHT22;9741;51.020;5.304;2023-02-02T08:41:26;9.70;61.70
19214;DHT22;9741;51.020;5.304;2023-02-02T08:43:56;9.80;61.80
19214;DHT22;9741;51.020;5.304;2023-02-02T08:46:24;9.80;61.80
19214;DHT22;9741;51.020;5.304;2023-02-02T08:48:52;9.90;61.80
19214;DHT22;9741;51.020;5.304;2023-02-02T08:51:20;9.90;61.70
19214;DHT22;9741;51.020;5.304;2023-02-02T08:53:47;9.90;61.70
19214;DHT22;9741;51.020;5.304;2023-02-02T08:56:17;9.90;61.70
19214;DHT22;9741;51.020;5.304;2023-02-02T08:58:45;9.90;61.70
19214;DHT22;9741;51.020;5.304;2023-02-02T09:01:15;9.90;61.70
19214;DHT22;9741;51.020;5.304;2023-02-02T09:03:43;9.90;61.70
19214;DHT22;9741;51.020;5.304;2023-02-02T09:06:13;10.00;60.70
19214;DHT22;9741;51.020;5.304;2023-02-02T09:08:42;10.00;60.70
19214;DHT22;9741;51.020;5.304;2023-02-02T09:11:11;10.00;60.70
19214;DHT22;9741;51.020;5.304;2023-02-02T09:13:39;10.10;60.70
19214;DHT22;9741;51.020;5.304;2023-02-02T09:16:09;10.10;60.70
19214;DHT22;9741;51.020;5.304;2023-02-02T09:18:39;10.10;60.70
19214;DHT22;9741;51.020;5.304;2023-02-02T09:21:08;10.20;60.70
19214;DHT22;9741;51.020;5.304;2023-02-02T09:23:38;10.20;60.60
19214;DHT22;9741;51.020;5.304;2023-02-02T09:26:09;10.30;60.60
19214;DHT22;9741;51.020;5.304;2023-02-02T09:28:38;10.30;60.50
19214;DHT22;9741;51.020;5.304;2023-02-02T09:31:06;10.40;60.60
19214;DHT22;9741;51.020;5.304;2023-02-02T09:33:33;10.40;60.50
19214;DHT22;9741;51.020;5.304;2023-02-02T09:36:08;10.40;60.40
19214;DHT22;9741;51.020;5.304;2023-02-02T09:38:37;10.40;60.40
19214;DHT22;9741;51.020;5.304;2023-02-02T09:44:17;10.50;60.30
19214;DHT22;9741;51.020;5.304;2023-02-02T09:46:56;10.50;60.30
19214;DHT22;9741;51.020;5.304;2023-02-02T09:49:34;10.50;60.30
19214;DHT22;9741;51.020;5.304;2023-02-02T09:52:10;10.50;60.10
19214;DHT22;9741;51.020;5.304;2023-02-02T09:54:41;10.60;60.70
19214;DHT22;9741;51.020;5.304;2023-02-02T09:57:30;10.60;60.10
19214;DHT22;9741;51.020;5.304;2023-02-02T09:59:59;10.60;60.10
19214;DHT22;9741;51.020;5.304;2023-02-02T10:02:31;10.70;60.00
19214;DHT22;9741;51.020;5.304;2023-02-02T10:05:21;10.70;59.90
19214;DHT22;9741;51.020;5.304;2023-02-02T10:07:55;10.80;60.00
19214;DHT22;9741;51.020;5.304;2023-02-02T10:10:27;10.80;60.00
19214;DHT22;9741;51.020;5.304;2023-02-02T10:12:58;10.80;59.80
19214;DHT22;9741;51.020;5.304;2023-02-02T10:15:34;10.80;59.80
19214;DHT22;9741;51.020;5.304;2023-02-02T10:18:08;10.90;59.70
19214;DHT22;9741;51.020;5.304;2023-02-02T10:20:42;11.00;59.80
19214;DHT22;9741;51.020;5.304;2023-02-02T10:23:20;11.00;59.60
19214;DHT22;9741;51.020;5.304;2023-02-02T10:25:55;11.10;59.60
19214;DHT22;9741;51.020;5.304;2023-02-02T10:28:44;11.10;59.50
19214;DHT22;9741;51.020;5.304;2023-02-02T10:31:21;11.10;59.30
19214;DHT22;9741;51.020;5.304;2023-02-02T10:34:00;11.20;59.30
19214;DHT22;9741;51.020;5.304;2023-02-02T10:36:34;11.20;59.20
19214;DHT22;9741;51.020;5.304;2023-02-02T10:39:15;11.10;59.10
19214;DHT22;9741;51.020;5.304;2023-02-02T10:41:51;11.10;59.00
19214;DHT22;9741;51.020;5.304;2023-02-02T10:44:29;11.30;59.30
19214;DHT22;9741;51.020;5.304;2023-02-02T10:46:59;11.30;59.10
19214;DHT22;9741;51.020;5.304;2023-02-02T10:49:32;11.40;58.90
19214;DHT22;9741;51.020;5.304;2023-02-02T10:52:06;11.40;58.80
19214;DHT22;9741;51.020;5.304;2023-02-02T10:54:49;11.40;58.60
19214;DHT22;9741;51.020;5.304;2023-02-02T10:57:25;11.50;58.60
19214;DHT22;9741;51.020;5.304;2023-02-02T11:00:02;11.50;58.50
19214;DHT22;9741;51.020;5.304;2023-02-02T11:02:31;11.60;58.40
19214;DHT22;9741;51.020;5.304;2023-02-02T11:04:59;11.70;58.50
19214;DHT22;9741;51.020;5.304;2023-02-02T11:07:44;11.90;58.40
19214;DHT22;9741;51.020;5.304;2023-02-02T11:10:13;12.00;58.20
19214;DHT22;9741;51.020;5.304;2023-02-02T11:12:43;12.10;58.00
19214;DHT22;9741;51.020;5.304;2023-02-02T11:15:24;12.20;57.90
19214;DHT22;9741;51.020;5.304;2023-02-02T11:17:52;12.20;57.70
19214;DHT22;9741;51.020;5.304;2023-02-02T11:20:22;12.30;57.60
19214;DHT22;9741;51.020;5.304;2023-02-02T11:22:59;12.30;57.30
19214;DHT22;9741;51.020;5.304;2023-02-02T11:25:30;12.40;57.20
19214;DHT22;9741;51.020;5.304;2023-02-02T11:28:01;12.50;57.20
19214;DHT22;9741;51.020;5.304;2023-02-02T11:30:37;12.60;57.20
19214;DHT22;9741;51.020;5.304;2023-02-02T11:33:20;12.60;57.00
19214;DHT22;9741;51.020;5.304;2023-02-02T11:35:53;12.60;56.90
19214;DHT22;9741;51.020;5.304;2023-02-02T11:38:21;12.70;56.80
19214;DHT22;9741;51.020;5.304;2023-02-02T11:40:57;12.80;56.80
19214;DHT22;9741;51.020;5.304;2023-02-02T11:43:29;12.80;56.60
19214;DHT22;9741;51.020;5.304;2023-02-02T11:45:59;12.90;56.50
19214;DHT22;9741;51.020;5.304;2023-02-02T11:48:31;13.00;56.90
19214;DHT22;9741;51.020;5.304;2023-02-02T11:51:00;13.00;56.20
19214;DHT22;9741;51.020;5.304;2023-02-02T11:53:30;13.00;56.00
19214;DHT22;9741;51.020;5.304;2023-02-02T11:56:03;13.00;55.90
19214;DHT22;9741;51.020;5.304;2023-02-02T11:58:42;13.00;55.70
19214;DHT22;9741;51.020;5.304;2023-02-02T12:01:22;13.00;55.70
19214;DHT22;9741;51.020;5.304;2023-02-02T12:03:51;13.00;55.70
19214;DHT22;9741;51.020;5.304;2023-02-02T12:06:21;13.00;55.60
19214;DHT22;9741;51.020;5.304;2023-02-02T12:08:50;12.90;55.60
19214;DHT22;9741;51.020;5.304;2023-02-02T12:11:32;12.90;55.60
19214;DHT22;9741;51.020;5.304;2023-02-02T12:14:12;12.80;55.40
19214;DHT22;9741;51.020;5.304;2023-02-02T12:16:50;12.80;55.50
19214;DHT22;9741;51.020;5.304;2023-02-02T12:19:37;12.70;55.30
19214;DHT22;9741;51.020;5.304;2023-02-02T12:22:21;12.70;55.30
19214;DHT22;9741;51.020;5.304;2023-02-02T12:24:56;12.70;55.40
19214;DHT22;9741;51.020;5.304;2023-02-02T12:27:36;12.80;55.50
19214;DHT22;9741;51.020;5.304;2023-02-02T12:30:25;12.90;55.50
19214;DHT22;9741;51.020;5.304;2023-02-02T12:33:11;13.00;55.40
19214;DHT22;9741;51.020;5.304;2023-02-02T12:35:52;13.00;55.20
19214;DHT22;9741;51.020;5.304;2023-02-02T12:38:30;13.10;55.20
19214;DHT22;9741;51.020;5.304;2023-02-02T12:41:21;13.00;55.00
19214;DHT22;9741;51.020;5.304;2023-02-02T12:44:00;13.10;55.10
19214;DHT22;9741;51.020;5.304;2023-02-02T12:46:58;13.10;55.00
19214;DHT22;9741;51.020;5.304;2023-02-02T12:49:40;13.10;55.00
19214;DHT22;9741;51.020;5.304;2023-02-02T12:52:20;13.10;55.00
19214;DHT22;9741;51.020;5.304;2023-02-02T12:55:09;13.10;55.00
19214;DHT22;9741;51.020;5.304;2023-02-02T12:57:49;13.10;55.00
19214;DHT22;9741;51.020;5.304;2023-02-02T13:00:34;13.20;55.10
19214;DHT22;9741;51.020;5.304;2023-02-02T13:03:27;13.20;54.90
19214;DHT22;9741;51.020;5.304;2023-02-02T13:06:06;13.20;55.30
19214;DHT22;9741;51.020;5.304;2023-02-02T13:08:40;13.10;54.70
19214;DHT22;9741;51.020;5.304;2023-02-02T13:11:11;13.00;54.70
19214;DHT22;9741;51.020;5.304;2023-02-02T13:13:58;13.00;54.70
19214;DHT22;9741;51.020;5.304;2023-02-02T13:16:29;12.90;54.60
19214;DHT22;9741;51.020;5.304;2023-02-02T13:19:01;12.90;54.70
19214;DHT22;9741;51.020;5.304;2023-02-02T13:21:29;12.90;54.70
19214;DHT22;9741;51.020;5.304;2023-02-02T13:23:59;13.00;54.70
19214;DHT22;9741;51.020;5.304;2023-02-02T13:26:30;13.10;54.80
19214;DHT22;9741;51.020;5.304;2023-02-02T13:29:05;13.20;54.70
19214;DHT22;9741;51.020;5.304;2023-02-02T13:31:41;13.30;54.70
19214;DHT22;9741;51.020;5.304;2023-02-02T13:34:15;13.50;54.60
19214;DHT22;9741;51.020;5.304;2023-02-02T13:36:49;13.50;54.40
19214;DHT22;9741;51.020;5.304;2023-02-02T13:39:21;13.50;54.20
19214;DHT22;9741;51.020;5.304;2023-02-02T13:41:51;13.40;54.10
19214;DHT22;9741;51.020;5.304;2023-02-02T13:44:23;13.40;54.20
19214;DHT22;9741;51.020;5.304;2023-02-02T13:46:58;13.40;54.30
19214;DHT22;9741;51.020;5.304;2023-02-02T13:49:28;13.30;54.30
19214;DHT22;9741;51.020;5.304;2023-02-02T13:52:12;13.30;54.30
19214;DHT22;9741;51.020;5.304;2023-02-02T13:55:12;13.30;54.30
19214;DHT22;9741;51.020;5.304;2023-02-02T14:01:00;13.30;54.30
19214;DHT22;9741;51.020;5.304;2023-02-02T14:03:33;13.20;54.20
19214;DHT22;9741;51.020;5.304;2023-02-02T14:06:12;13.20;54.30
19214;DHT22;9741;51.020;5.304;2023-02-02T14:08:47;13.10;54.30
19214;DHT22;9741;51.020;5.304;2023-02-02T14:11:20;13.00;54.30
19214;DHT22;9741;51.020;5.304;2023-02-02T14:13:49;13.00;54.40
19214;DHT22;9741;51.020;5.304;2023-02-02T14:16:45;12.90;54.40
19214;DHT22;9741;51.020;5.304;2023-02-02T14:24:46;12.80;54.50
19214;DHT22;9741;51.020;5.304;2023-02-02T14:27:40;12.70;54.40
19214;DHT22;9741;51.020;5.304;2023-02-02T14:30:22;12.60;54.50
19214;DHT22;9741;51.020;5.304;2023-02-02T14:32:50;12.60;54.60
19214;DHT22;9741;51.020;5.304;2023-02-02T14:35:59;12.50;54.60
19214;DHT22;9741;51.020;5.304;2023-02-02T14:42:05;12.40;54.60
19214;DHT22;9741;51.020;5.304;2023-02-02T14:45:14;12.40;54.80
19214;DHT22;9741;51.020;5.304;2023-02-02T14:47:49;12.40;54.90
19214;DHT22;9741;51.020;5.304;2023-02-02T14:50:20;12.30;54.90
19214;DHT22;9741;51.020;5.304;2023-02-02T14:52:59;12.30;55.00
19214;DHT22;9741;51.020;5.304;2023-02-02T14:55:27;12.30;55.00
19214;DHT22;9741;51.020;5.304;2023-02-02T14:57:57;12.20;55.00
19214;DHT22;9741;51.020;5.304;2023-02-02T15:00:28;12.20;55.10
19214;DHT22;9741;51.020;5.304;2023-02-02T15:02:56;12.20;55.10
19214;DHT22;9741;51.020;5.304;2023-02-02T15:05:44;12.20;55.20
19214;DHT22;9741;51.020;5.304;2023-02-02T15:08:23;12.10;55.10
19214;DHT22;9741;51.020;5.304;2023-02-02T15:11:03;12.10;55.30
19214;DHT22;9741;51.020;5.304;2023-02-02T15:13:58;12.00;55.20
19214;DHT22;9741;51.020;5.304;2023-02-02T15:16:35;12.00;55.40
19214;DHT22;9741;51.020;5.304;2023-02-02T15:19:11;11.90;55.40
19214;DHT22;9741;51.020;5.304;2023-02-02T15:21:40;11.90;55.50
19214;DHT22;9741;51.020;5.304;2023-02-02T15:24:21;11.90;55.50
19214;DHT22;9741;51.020;5.304;2023-02-02T15:26:51;11.90;55.70
19214;DHT22;9741;51.020;5.304;2023-02-02T15:29:31;11.80;55.60
19214;DHT22;9741;51.020;5.304;2023-02-02T15:31:59;11.80;55.70
19214;DHT22;9741;51.020;5.304;2023-02-02T15:34:34;11.80;55.80
19214;DHT22;9741;51.020;5.304;2023-02-02T15:37:07;11.80;55.90
19214;DHT22;9741;51.020;5.304;2023-02-02T15:39:42;11.80;55.90
19214;DHT22;9741;51.020;5.304;2023-02-02T15:42:15;11.80;56.00
19214;DHT22;9741;51.020;5.304;2023-02-02T15:45:01;11.70;56.00
19214;DHT22;9741;51.020;5.304;2023-02-02T15:47:31;11.70;56.10
19214;DHT22;9741;51.020;5.304;2023-02-02T15:50:00;11.70;56.20
19214;DHT22;9741;51.020;5.304;2023-02-02T15:52:31;11.70;56.30
19214;DHT22;9741;51.020;5.304;2023-02-02T15:55:01;11.70;56.40
19214;DHT22;9741;51.020;5.304;2023-02-02T15:57:31;11.60;56.30
19214;DHT22;9741;51.020;5.304;2023-02-02T16:00:01;11.60;56.50
19214;DHT22;9741;51.020;5.304;2023-02-02T16:02:34;11.60;56.60
19214;DHT22;9741;51.020;5.304;2023-02-02T16:05:37;11.60;56.70
19214;DHT22;9741;51.020;5.304;2023-02-02T16:08:10;11.50;56.70
19214;DHT22;9741;51.020;5.304;2023-02-02T16:10:41;11.40;56.70
19214;DHT22;9741;51.020;5.304;2023-02-02T16:13:22;11.40;56.90
19214;DHT22;9741;51.020;5.304;2023-02-02T16:15:57;11.40;57.10
19214;DHT22;9741;51.020;5.304;2023-02-02T16:18:25;11.30;57.10
19214;DHT22;9741;51.020;5.304;2023-02-02T16:20:53;11.30;57.10
19214;DHT22;9741;51.020;5.304;2023-02-02T16:23:25;11.30;57.30
19214;DHT22;9741;51.020;5.304;2023-02-02T16:25:57;11.30;57.40
19214;DHT22;9741;51.020;5.304;2023-02-02T16:28:25;11.30;57.50
19214;DHT22;9741;51.020;5.304;2023-02-02T16:30:53;11.30;57.60
19214;DHT22;9741;51.020;5.304;2023-02-02T16:33:29;11.20;57.60
19214;DHT22;9741;51.020;5.304;2023-02-02T16:35:59;11.20;57.70
19214;DHT22;9741;51.020;5.304;2023-02-02T16:38:30;11.20;57.80
19214;DHT22;9741;51.020;5.304;2023-02-02T16:41:07;11.20;57.90
19214;DHT22;9741;51.020;5.304;2023-02-02T16:43:36;11.20;58.00